createdAt,value
2023-06-20T00:00:32.528Z,7513.00
2023-06-20T00:01:32.535Z,7526.00
2023-06-20T00:02:32.533Z,7546.00
2023-06-20T00:03:32.559Z,7538.00
2023-06-20T00:04:32.610Z,7559.00
2023-06-20T00:05:32.602Z,7560.00
2023-06-20T00:06:32.616Z,7570.00
2023-06-20T00:07:32.670Z,7554.00
2023-06-20T00:08:32.739Z,7528.00
2023-06-20T00:09:32.822Z,7535.00
2023-06-20T00:10:32.804Z,7509.00
2023-06-20T00:11:32.813Z,7460.00
2023-06-20T00:12:32.809Z,7432.00
2023-06-20T00:13:32.826Z,7359.00
2023-06-20T00:14:32.860Z,7326.00
2023-06-20T00:15:32.829Z,7284.00
2023-06-20T00:16:32.818Z,7200.00
2023-06-20T00:17:32.929Z,7182.00
2023-06-20T00:18:32.956Z,7148.00
2023-06-20T00:19:33.033Z,7098.00
2023-06-20T00:20:33.052Z,7058.00
2023-06-20T00:21:33.077Z,6997.00
2023-06-20T00:22:33.124Z,6982.00
2023-06-20T00:23:33.186Z,6921.00
2023-06-20T00:24:33.251Z,6960.00
2023-06-20T00:25:33.278Z,6984.00
2023-06-20T00:26:33.346Z,6972.00
2023-06-20T00:27:33.365Z,6949.00
2023-06-20T00:28:33.444Z,6904.00
2023-06-20T00:29:33.440Z,6896.00
2023-06-20T00:30:33.492Z,6846.00
2023-06-20T00:31:33.477Z,6804.00
2023-06-20T00:32:33.567Z,6763.00
2023-06-20T00:33:33.572Z,6751.00
2023-06-20T00:34:33.595Z,6783.00
2023-06-20T00:35:33.677Z,6781.00
2023-06-20T00:36:33.694Z,6802.00
2023-06-20T00:37:33.737Z,6796.00
2023-06-20T00:38:33.792Z,6784.00
2023-06-20T00:39:33.817Z,6795.00
2023-06-20T00:40:33.839Z,6707.00
2023-06-20T00:41:33.902Z,6593.00
2023-06-20T00:42:33.876Z,6537.00
2023-06-20T00:43:33.904Z,6531.00
2023-06-20T00:44:33.980Z,6530.00
2023-06-20T00:45:34.202Z,6585.00
2023-06-20T00:46:34.255Z,6624.00
2023-06-20T00:47:34.066Z,6552.00
2023-06-20T00:48:34.176Z,6540.00
2023-06-20T00:49:34.089Z,6543.00
2023-06-20T00:50:34.081Z,6620.00
2023-06-20T00:51:34.155Z,6619.00
2023-06-20T00:52:34.224Z,6642.00
2023-06-20T00:53:34.333Z,6700.00
2023-06-20T00:54:34.316Z,6686.00
2023-06-20T00:55:34.341Z,6742.00
2023-06-20T00:56:34.360Z,6792.00
2023-06-20T00:57:34.383Z,6820.00
2023-06-20T00:58:34.390Z,6820.00
2023-06-20T00:59:34.436Z,6831.00
2023-06-20T01:00:34.528Z,6794.00
2023-06-20T01:01:34.614Z,6772.00
2023-06-20T01:02:34.505Z,6770.00
2023-06-20T01:03:34.615Z,6741.00
2023-06-20T01:04:34.561Z,6720.00
2023-06-20T01:05:34.576Z,6726.00
2023-06-20T01:06:34.601Z,6757.00
2023-06-20T01:07:34.632Z,6750.00
2023-06-20T01:08:34.635Z,6735.00
2023-06-20T01:09:34.703Z,6719.00
2023-06-20T01:10:34.674Z,6769.00
2023-06-20T01:11:34.716Z,6811.00
2023-06-20T01:12:34.738Z,6783.00
2023-06-20T01:13:34.766Z,6757.00
2023-06-20T01:14:34.775Z,6744.00
2023-06-20T01:15:34.859Z,6742.00
2023-06-20T01:16:34.927Z,6713.00
2023-06-20T01:17:34.941Z,6658.00
2023-06-20T01:18:34.990Z,6661.00
2023-06-20T01:19:34.941Z,6670.00
2023-06-20T01:20:35.002Z,6659.00
2023-06-20T01:21:34.967Z,6665.00
2023-06-20T01:22:35.035Z,6624.00
2023-06-20T01:23:35.056Z,6600.00
2023-06-20T01:24:35.116Z,6577.00
2023-06-20T01:25:35.065Z,6617.00
2023-06-20T01:26:35.100Z,6654.00
2023-06-20T01:27:35.138Z,6652.00
2023-06-20T01:28:35.218Z,6653.00
2023-06-20T01:29:35.132Z,6630.00
2023-06-20T01:30:35.174Z,6658.00
2023-06-20T01:31:35.191Z,6673.00
2023-06-20T01:32:35.252Z,6655.00
2023-06-20T01:33:35.209Z,6630.00
2023-06-20T01:34:35.259Z,6591.00
2023-06-20T01:35:35.270Z,6544.00
2023-06-20T01:36:35.330Z,6558.00
2023-06-20T01:37:35.373Z,6562.00
2023-06-20T01:38:35.429Z,6587.00
2023-06-20T01:39:35.415Z,6598.00
2023-06-20T01:40:35.471Z,6581.00
2023-06-20T01:41:35.519Z,6588.00
2023-06-20T01:42:35.563Z,6635.00
2023-06-20T01:43:35.596Z,6656.00
2023-06-20T01:44:35.648Z,6659.00
2023-06-20T01:45:35.721Z,6593.00
2023-06-20T01:46:35.820Z,6632.00
2023-06-20T01:47:35.863Z,6647.00
2023-06-20T01:48:35.865Z,6674.00
2023-06-20T01:49:35.864Z,6645.00
2023-06-20T01:50:35.885Z,6641.00
2023-06-20T01:51:35.939Z,6575.00
2023-06-20T01:52:36.036Z,6558.00
2023-06-20T01:53:36.027Z,6557.00
2023-06-20T01:54:36.047Z,6566.00
2023-06-20T01:55:36.074Z,6554.00
2023-06-20T01:56:36.116Z,6505.00
2023-06-20T01:57:36.145Z,6531.00
2023-06-20T01:58:36.174Z,6526.00
2023-06-20T01:59:36.255Z,6528.00
2023-06-20T02:00:36.267Z,6465.00
2023-06-20T02:01:36.340Z,6441.00
2023-06-20T02:02:36.431Z,6398.00
2023-06-20T02:03:36.423Z,6360.00
2023-06-20T02:04:36.420Z,6320.00
2023-06-20T02:05:36.427Z,6240.00
2023-06-20T02:06:36.486Z,6215.00
2023-06-20T02:07:36.523Z,6111.00
2023-06-20T02:08:36.551Z,6041.00
2023-06-20T02:09:36.598Z,5999.00
2023-06-20T02:10:36.604Z,6019.00
2023-06-20T02:11:36.655Z,6058.00
2023-06-20T02:12:36.709Z,6036.00
2023-06-20T02:13:36.768Z,5988.00
2023-06-20T02:14:36.852Z,5943.00
2023-06-20T02:15:36.772Z,5915.00
2023-06-20T02:16:36.938Z,5922.00
2023-06-20T02:17:36.955Z,5931.00
2023-06-20T02:18:36.928Z,5939.00
2023-06-20T02:19:36.945Z,5939.00
2023-06-20T02:20:36.933Z,5938.00
2023-06-20T02:21:36.936Z,5857.00
2023-06-20T02:22:36.903Z,5862.00
2023-06-20T02:23:36.976Z,5801.00
2023-06-20T02:24:36.986Z,5821.00
2023-06-20T02:25:37.010Z,5786.00
2023-06-20T02:26:36.922Z,5813.00
2023-06-20T02:27:36.949Z,5724.00
2023-06-20T02:28:36.871Z,5802.00
2023-06-20T02:29:36.925Z,6156.00
2023-06-20T02:30:36.971Z,6071.00
2023-06-20T02:31:36.856Z,6072.00
2023-06-20T02:32:36.891Z,6023.00
2023-06-20T02:33:36.867Z,5952.00
2023-06-20T02:34:36.785Z,5908.00
2023-06-20T02:35:36.822Z,5902.00
2023-06-20T02:36:36.845Z,5893.00
2023-06-20T02:37:36.979Z,5893.00
2023-06-20T02:38:37.032Z,5895.00
2023-06-20T02:39:36.999Z,5869.00
2023-06-20T02:40:37.081Z,5811.00
2023-06-20T02:41:37.124Z,5794.00
2023-06-20T02:42:37.196Z,5808.00
2023-06-20T02:43:37.242Z,5797.00
2023-06-20T02:44:37.336Z,5839.00
2023-06-20T02:45:37.342Z,5888.00
2023-06-20T02:46:37.487Z,5921.00
2023-06-20T02:47:37.582Z,5965.00
2023-06-20T02:48:37.572Z,5941.00
2023-06-20T02:49:37.607Z,5939.00
2023-06-20T02:50:37.634Z,5993.00
2023-06-20T02:51:37.697Z,6036.00
2023-06-20T02:52:37.769Z,6092.00
2023-06-20T02:53:37.896Z,6153.00
2023-06-20T02:54:37.875Z,6214.00
2023-06-20T02:55:37.932Z,6235.00
2023-06-20T02:56:37.941Z,6254.00
2023-06-20T02:57:37.999Z,6288.00
2023-06-20T02:58:38.017Z,6326.00
2023-06-20T02:59:38.017Z,6342.00
2023-06-20T03:00:38.067Z,6348.00
2023-06-20T03:01:38.130Z,6389.00
2023-06-20T03:02:38.195Z,6475.00
2023-06-20T03:03:38.288Z,6538.00
2023-06-20T03:04:38.204Z,6574.00
2023-06-20T03:05:38.216Z,6590.00
2023-06-20T03:06:38.359Z,6597.00
2023-06-20T03:07:38.261Z,6561.00
2023-06-20T03:08:38.335Z,6557.00
2023-06-20T03:09:38.295Z,6555.00
2023-06-20T03:10:38.343Z,6557.00
2023-06-20T03:11:38.446Z,6565.00
2023-06-20T03:12:38.499Z,6542.00
2023-06-20T03:13:38.502Z,6517.00
2023-06-20T03:14:38.543Z,6495.00
2023-06-20T03:15:38.610Z,6437.00
2023-06-20T03:16:38.695Z,6377.00
2023-06-20T03:17:38.728Z,6318.00
2023-06-20T03:18:38.707Z,6301.00
2023-06-20T03:19:38.715Z,6264.00
2023-06-20T03:20:38.731Z,6191.00
2023-06-20T03:21:38.747Z,6152.00
2023-06-20T03:22:38.776Z,6133.00
2023-06-20T03:23:38.787Z,6130.00
2023-06-20T03:24:38.777Z,6148.00
2023-06-20T03:25:38.782Z,6228.00
2023-06-20T03:26:38.784Z,6268.00
2023-06-20T03:27:38.774Z,6315.00
2023-06-20T03:28:38.829Z,6350.00
2023-06-20T03:29:38.794Z,6402.00
2023-06-20T03:30:38.802Z,6474.00
2023-06-20T03:31:38.877Z,6504.00
2023-06-20T03:32:38.909Z,6507.00
2023-06-20T03:33:38.934Z,6500.00
2023-06-20T03:34:38.963Z,6530.00
2023-06-20T03:35:39.029Z,6514.00
2023-06-20T03:36:39.003Z,6443.00
2023-06-20T03:37:39.046Z,6382.00
2023-06-20T03:38:39.115Z,6348.00
2023-06-20T03:39:39.162Z,6350.00
2023-06-20T03:40:39.218Z,6444.00
2023-06-20T03:41:39.287Z,6430.00
2023-06-20T03:42:39.330Z,6399.00
2023-06-20T03:43:39.431Z,6381.00
2023-06-20T03:44:39.516Z,6391.00
2023-06-20T03:45:39.572Z,6387.00
2023-06-20T03:46:39.577Z,6275.00
2023-06-20T03:47:39.624Z,6268.00
2023-06-20T03:48:39.665Z,6241.00
2023-06-20T03:49:40.620Z,6230.00
2023-06-20T03:50:39.640Z,6071.00
2023-06-20T03:51:39.715Z,5969.00
2023-06-20T03:52:39.729Z,5965.00
2023-06-20T03:53:39.792Z,5918.00
2023-06-20T03:54:39.796Z,5936.00
2023-06-20T03:55:39.822Z,5947.00
2023-06-20T03:56:39.865Z,5973.00
2023-06-20T03:57:39.820Z,5968.00
2023-06-20T03:58:39.937Z,5973.00
2023-06-20T03:59:39.925Z,5981.00
2023-06-20T04:00:39.957Z,5996.00
2023-06-20T04:01:39.937Z,6030.00
2023-06-20T04:02:39.955Z,6033.00
2023-06-20T04:03:40.063Z,6054.00
2023-06-20T04:04:39.882Z,6079.00
2023-06-20T04:05:39.900Z,6151.00
2023-06-20T04:06:39.898Z,6248.00
2023-06-20T04:07:39.933Z,6279.00
2023-06-20T04:08:39.881Z,6305.00
2023-06-20T04:09:39.877Z,6327.00
2023-06-20T04:10:39.891Z,6381.00
2023-06-20T04:11:39.841Z,6422.00
2023-06-20T04:12:39.877Z,6482.00
2023-06-20T04:13:39.932Z,6463.00
2023-06-20T04:14:39.886Z,6449.00
2023-06-20T04:15:40.003Z,6453.00
2023-06-20T04:16:40.065Z,6447.00
2023-06-20T04:17:40.138Z,6520.00
2023-06-20T04:18:40.102Z,6521.00
2023-06-20T04:19:40.118Z,6522.00
2023-06-20T04:20:40.083Z,6525.00
2023-06-20T04:21:40.080Z,6466.00
2023-06-20T04:22:40.059Z,6424.00
2023-06-20T04:23:40.096Z,6426.00
2023-06-20T04:24:40.099Z,6429.00
2023-06-20T04:25:40.081Z,6430.00
2023-06-20T04:26:40.036Z,6437.00
2023-06-20T04:27:40.048Z,6456.00
2023-06-20T04:28:40.055Z,6491.00
2023-06-20T04:29:40.037Z,6558.00
2023-06-20T04:30:40.032Z,6466.00
2023-06-20T04:31:40.010Z,6493.00
2023-06-20T04:32:40.051Z,6454.00
2023-06-20T04:33:39.996Z,6439.00
2023-06-20T04:34:40.002Z,6381.00
2023-06-20T04:35:39.963Z,6385.00
2023-06-20T04:36:39.981Z,6400.00
2023-06-20T04:37:40.071Z,6423.00
2023-06-20T04:38:39.992Z,6401.00
2023-06-20T04:39:40.036Z,6316.00
2023-06-20T04:40:40.051Z,6295.00
2023-06-20T04:41:40.098Z,6380.00
2023-06-20T04:42:40.132Z,6416.00
2023-06-20T04:43:40.802Z,6511.00
2023-06-20T04:44:40.202Z,6454.00
2023-06-20T04:45:40.262Z,6481.00
2023-06-20T04:46:40.279Z,6446.00
2023-06-20T04:47:40.354Z,6452.00
2023-06-20T04:48:40.456Z,6449.00
2023-06-20T04:49:40.339Z,6413.00
2023-06-20T04:50:40.337Z,6422.00
2023-06-20T04:51:40.349Z,6402.00
2023-06-20T04:52:40.422Z,6355.00
2023-06-20T04:53:40.390Z,6271.00
2023-06-20T04:54:40.437Z,6205.00
2023-06-20T04:55:40.428Z,6218.00
2023-06-20T04:56:40.438Z,6204.00
2023-06-20T04:57:40.465Z,6268.00
2023-06-20T04:58:40.534Z,6361.00
2023-06-20T04:59:40.537Z,6303.00
2023-06-20T05:02:00.467Z,500.00
2023-06-20T05:03:00.413Z,500.00
2023-06-20T05:04:00.079Z,500.00
2023-06-20T05:05:00.425Z,500.00
2023-06-20T05:06:00.042Z,500.00
2023-06-20T05:07:00.331Z,500.00
2023-06-20T05:07:59.943Z,500.00
2023-06-20T05:09:00.003Z,505.00
2023-06-20T05:10:00.344Z,569.00
2023-06-20T05:11:00.323Z,540.00
2023-06-20T05:12:04.564Z,495.00
2023-06-20T05:13:00.953Z,484.00
2023-06-20T05:14:00.280Z,479.00
2023-06-20T05:14:59.978Z,474.00
2023-06-20T05:16:00.085Z,511.00
2023-06-20T05:16:59.992Z,487.00
2023-06-20T05:18:00.127Z,563.00
2023-06-20T05:19:00.493Z,579.00
2023-06-20T05:20:00.195Z,1060.00
2023-06-20T05:21:00.508Z,1278.00
2023-06-20T05:22:00.519Z,1147.00
2023-06-20T05:23:00.244Z,848.00
2023-06-20T05:24:00.491Z,1361.00
2023-06-20T05:25:00.567Z,1985.00
2023-06-20T05:26:00.233Z,1490.00
2023-06-20T05:27:00.258Z,1708.00
2023-06-20T05:28:00.670Z,1550.00
2023-06-20T05:29:00.300Z,1762.00
2023-06-20T05:30:00.455Z,1548.00
2023-06-20T05:31:00.658Z,1134.00
2023-06-20T05:32:00.554Z,1087.00
2023-06-20T05:33:00.568Z,955.00
2023-06-20T05:34:00.738Z,685.00
2023-06-20T05:35:00.619Z,603.00
2023-06-20T05:36:00.619Z,545.00
2023-06-20T05:37:00.613Z,537.00
2023-06-20T05:38:00.608Z,487.00
2023-06-20T05:39:01.109Z,443.00
2023-06-20T05:40:01.390Z,444.00
2023-06-20T05:41:00.708Z,457.00
2023-06-20T05:42:00.714Z,474.00
2023-06-20T05:43:00.750Z,492.00
2023-06-20T05:44:01.417Z,593.00
2023-06-20T05:45:00.863Z,950.00
2023-06-20T05:47:20.279Z,500.00
2023-06-20T05:48:20.059Z,500.00
2023-06-20T05:49:20.163Z,500.00
2023-06-20T05:50:20.069Z,500.00
2023-06-20T05:51:21.045Z,500.00
2023-06-20T05:52:20.384Z,434.00
2023-06-20T05:53:22.185Z,583.00
2023-06-20T05:54:20.216Z,676.00
2023-06-20T05:55:20.061Z,760.00
2023-06-20T05:56:20.554Z,601.00
2023-06-20T05:57:20.082Z,480.00
2023-06-20T05:58:20.253Z,516.00
2023-06-20T05:59:20.711Z,546.00
2023-06-20T06:00:20.334Z,584.00
2023-06-20T06:01:20.256Z,534.00
2023-06-20T06:02:20.309Z,501.00
2023-06-20T06:03:20.631Z,520.00
2023-06-20T06:04:20.619Z,610.00
2023-06-20T06:05:20.986Z,640.00
2023-06-20T06:06:20.542Z,670.00
2023-06-20T06:07:20.614Z,672.00
2023-06-20T06:08:20.676Z,618.00
2023-06-20T06:09:21.258Z,617.00
2023-06-20T06:10:20.717Z,933.00
2023-06-20T06:11:20.753Z,912.00
2023-06-20T06:12:20.781Z,822.00
2023-06-20T06:13:20.829Z,846.00
2023-06-20T06:14:20.994Z,972.00
2023-06-20T06:15:21.024Z,941.00
2023-06-20T06:16:21.082Z,1044.00
2023-06-20T06:17:21.126Z,857.00
2023-06-20T06:18:21.075Z,668.00
2023-06-20T06:19:21.264Z,619.00
2023-06-20T06:20:21.172Z,564.00
2023-06-20T06:21:21.191Z,523.00
2023-06-20T06:22:21.356Z,569.00
2023-06-20T06:23:21.766Z,1065.00
2023-06-20T06:24:21.384Z,1376.00
2023-06-20T06:25:21.613Z,970.00
2023-06-20T06:26:21.906Z,746.00
2023-06-20T06:27:21.635Z,588.00
2023-06-20T06:28:21.827Z,567.00
2023-06-20T06:29:21.808Z,578.00
2023-06-20T06:30:21.594Z,598.00
2023-06-20T06:31:21.626Z,1028.00
2023-06-20T06:32:21.878Z,932.00
2023-06-20T06:33:21.729Z,664.00
2023-06-20T06:34:21.630Z,518.00
2023-06-20T06:35:21.706Z,461.00
2023-06-20T06:36:21.747Z,497.00
2023-06-20T06:37:21.752Z,500.00
2023-06-20T06:38:21.563Z,448.00
2023-06-20T06:39:21.583Z,452.00
2023-06-20T06:40:21.772Z,533.00
2023-06-20T06:41:21.587Z,525.00
2023-06-20T06:42:21.682Z,458.00
2023-06-20T06:43:21.762Z,488.00
2023-06-20T06:44:21.720Z,541.00
2023-06-20T06:45:22.224Z,495.00
2023-06-20T06:46:21.944Z,500.00
2023-06-20T06:47:22.366Z,485.00
2023-06-20T06:48:21.996Z,480.00
2023-06-20T06:49:22.237Z,512.00
2023-06-20T06:50:22.144Z,573.00
2023-06-20T06:51:22.077Z,822.00
2023-06-20T06:52:22.494Z,745.00
2023-06-20T06:53:22.268Z,744.00
2023-06-20T06:54:22.175Z,1162.00
2023-06-20T06:55:22.246Z,1067.00
2023-06-20T06:56:22.592Z,658.00
2023-06-20T06:57:22.221Z,634.00
2023-06-20T06:58:23.220Z,628.00
2023-06-20T06:59:22.910Z,591.00
2023-06-20T07:00:22.721Z,633.00
2023-06-20T07:01:22.366Z,845.00
2023-06-20T07:02:22.402Z,1046.00
2023-06-20T07:03:22.781Z,759.00
2023-06-20T07:04:22.725Z,738.00
2023-06-20T07:05:22.908Z,811.00
2023-06-20T07:06:22.481Z,542.00
2023-06-20T07:07:22.501Z,598.00
2023-06-20T07:08:22.963Z,422.00
2023-06-20T07:09:22.411Z,400.00
2023-06-20T07:10:22.510Z,400.00
2023-06-20T07:11:22.482Z,472.00
2023-06-20T07:12:22.424Z,461.00
2023-06-20T07:13:22.743Z,636.00
2023-06-20T07:14:22.793Z,587.00
2023-06-20T07:15:23.646Z,537.00
2023-06-20T07:16:22.869Z,534.00
2023-06-20T07:17:22.560Z,631.00
2023-06-20T07:18:22.378Z,743.00
2023-06-20T07:19:22.513Z,714.00
2023-06-20T07:20:22.469Z,575.00
2023-06-20T07:21:22.562Z,735.00
2023-06-20T07:22:23.195Z,516.00
2023-06-20T07:23:22.385Z,400.00
2023-06-20T07:24:24.427Z,400.00
2023-06-20T07:25:22.730Z,400.00
2023-06-20T07:26:22.412Z,400.00
2023-06-20T07:27:22.394Z,400.00
2023-06-20T07:28:22.523Z,606.00
2023-06-20T07:29:22.327Z,546.00
2023-06-20T07:30:22.870Z,589.00
2023-06-20T07:31:22.658Z,865.00
2023-06-20T07:32:22.658Z,1053.00
2023-06-20T07:33:22.432Z,1129.00
2023-06-20T07:34:22.602Z,641.00
2023-06-20T07:35:22.663Z,772.00
2023-06-20T07:36:22.789Z,1188.00
2023-06-20T07:37:22.716Z,1137.00
2023-06-20T07:38:22.882Z,1022.00
2023-06-20T07:39:22.887Z,639.00
2023-06-20T07:40:22.923Z,544.00
2023-06-20T07:41:23.612Z,526.00
2023-06-20T07:42:23.024Z,505.00
2023-06-20T07:43:23.203Z,456.00
2023-06-20T07:44:23.050Z,537.00
2023-06-20T07:45:23.166Z,464.00
2023-06-20T07:46:23.696Z,400.00
2023-06-20T07:47:23.190Z,583.00
2023-06-20T07:48:23.766Z,542.00
2023-06-20T07:49:23.171Z,533.00
2023-06-20T07:50:23.176Z,536.00
2023-06-20T07:51:23.906Z,654.00
2023-06-20T07:52:23.912Z,679.00
2023-06-20T07:53:24.246Z,992.00
2023-06-20T07:54:23.519Z,827.00
2023-06-20T07:55:30.038Z,998.00
2023-06-20T07:56:23.912Z,866.00
2023-06-20T07:57:23.357Z,960.00
2023-06-20T07:58:23.339Z,635.00
2023-06-20T07:59:25.624Z,502.00
2023-06-20T08:00:24.616Z,627.00
2023-06-20T08:01:23.603Z,570.00
2023-06-20T08:02:23.421Z,400.00
2023-06-20T08:03:23.375Z,400.00
2023-06-20T08:04:23.381Z,400.00
2023-06-20T08:05:23.505Z,482.00
2023-06-20T08:06:23.811Z,449.00
2023-06-20T08:07:23.339Z,400.00
2023-06-20T08:08:23.321Z,400.00
2023-06-20T08:09:24.012Z,400.00
2023-06-20T08:10:23.334Z,400.00
2023-06-20T08:11:23.323Z,527.00
2023-06-20T08:12:23.318Z,467.00
2023-06-20T08:13:23.471Z,478.00
2023-06-20T08:14:23.439Z,758.00
2023-06-20T08:15:23.704Z,771.00
2023-06-20T08:16:24.069Z,956.00
2023-06-20T08:17:23.476Z,1520.00
2023-06-20T08:18:23.479Z,2136.00
2023-06-20T08:19:23.561Z,1757.00
2023-06-20T08:20:23.553Z,1483.00
2023-06-20T08:21:23.773Z,712.00
2023-06-20T08:22:23.485Z,598.00
2023-06-20T08:23:23.505Z,595.00
2023-06-20T08:24:23.561Z,542.00
2023-06-20T08:25:23.757Z,506.00
2023-06-20T08:26:24.560Z,472.00
2023-06-20T08:27:23.623Z,400.00
2023-06-20T08:28:23.725Z,474.00
2023-06-20T08:29:23.973Z,543.00
2023-06-20T08:30:23.828Z,616.00
2023-06-20T08:31:25.278Z,445.00
2023-06-20T08:32:23.894Z,400.00
2023-06-20T08:33:23.792Z,400.00
2023-06-20T08:34:23.696Z,400.00
2023-06-20T08:35:23.785Z,438.00
2023-06-20T08:36:24.723Z,544.00
2023-06-20T08:37:23.893Z,510.00
2023-06-20T08:38:23.729Z,459.00
2023-06-20T08:39:23.793Z,400.00
2023-06-20T08:40:24.484Z,562.00
2023-06-20T08:41:23.974Z,451.00
2023-06-20T08:42:23.883Z,400.00
2023-06-20T08:43:23.948Z,411.00
2023-06-20T08:44:24.060Z,500.00
2023-06-20T08:45:24.477Z,549.00
2023-06-20T08:46:24.514Z,490.00
2023-06-20T08:47:24.115Z,688.00
2023-06-20T08:48:24.008Z,653.00
2023-06-20T08:49:24.913Z,455.00
2023-06-20T08:50:24.317Z,400.00
2023-06-20T08:51:24.264Z,400.00
2023-06-20T08:52:24.005Z,478.00
2023-06-20T08:53:24.431Z,825.00
2023-06-20T08:54:24.245Z,622.00
2023-06-20T08:55:24.922Z,561.00
2023-06-20T08:56:24.369Z,571.00
2023-06-20T08:57:24.186Z,500.00
2023-06-20T08:58:24.180Z,638.00
2023-06-20T08:59:24.560Z,556.00
2023-06-20T09:00:24.572Z,640.00
2023-06-20T09:01:24.905Z,675.00
2023-06-20T09:02:24.671Z,947.00
2023-06-20T09:03:24.575Z,1437.00
2023-06-20T09:04:24.528Z,1564.00
2023-06-20T09:05:26.070Z,902.00
2023-06-20T09:06:25.036Z,778.00
2023-06-20T09:07:24.950Z,769.00
2023-06-20T09:08:26.680Z,962.00
2023-06-20T09:09:25.150Z,735.00
2023-06-20T09:10:25.840Z,1273.00
2023-06-20T09:11:24.937Z,872.00
2023-06-20T09:12:25.359Z,1156.00
2023-06-20T09:13:25.487Z,1165.00
2023-06-20T09:14:25.663Z,846.00
2023-06-20T09:15:24.717Z,520.00
2023-06-20T09:16:24.708Z,508.00
2023-06-20T09:17:24.661Z,595.00
2023-06-20T09:18:24.612Z,617.00
2023-06-20T09:19:25.310Z,815.00
2023-06-20T09:20:25.191Z,714.00
2023-06-20T09:21:24.517Z,547.00
2023-06-20T09:22:24.847Z,528.00
2023-06-20T09:23:24.648Z,487.00
2023-06-20T09:24:25.695Z,575.00
2023-06-20T09:25:24.557Z,536.00
2023-06-20T09:26:24.732Z,532.00
2023-06-20T09:27:25.122Z,1050.00
2023-06-20T09:28:24.600Z,653.00
2023-06-20T09:29:24.588Z,587.00
2023-06-20T09:30:26.174Z,403.00
2023-06-20T09:31:24.576Z,553.00
2023-06-20T09:32:25.031Z,539.00
2023-06-20T09:33:24.720Z,592.00
2023-06-20T09:34:24.537Z,1101.00
2023-06-20T09:35:24.587Z,1251.00
2023-06-20T09:36:24.693Z,1112.00
2023-06-20T09:37:25.669Z,1151.00
2023-06-20T09:38:25.065Z,796.00
2023-06-20T09:39:24.926Z,488.00
2023-06-20T09:40:25.495Z,492.00
2023-06-20T09:41:24.783Z,918.00
2023-06-20T09:42:25.428Z,653.00
2023-06-20T09:43:24.951Z,994.00
2023-06-20T09:44:24.898Z,654.00
2023-06-20T09:45:25.066Z,599.00
2023-06-20T09:46:25.383Z,693.00
2023-06-20T09:47:25.442Z,775.00
2023-06-20T09:48:25.009Z,864.00
2023-06-20T09:49:25.031Z,658.00
2023-06-20T09:50:25.448Z,782.00
2023-06-20T09:51:25.047Z,786.00
2023-06-20T09:52:25.627Z,701.00
2023-06-20T09:53:25.580Z,631.00
2023-06-20T09:54:25.159Z,612.00
2023-06-20T09:55:25.145Z,586.00
2023-06-20T09:56:25.596Z,517.00
2023-06-20T09:57:25.400Z,580.00
2023-06-20T09:58:26.174Z,594.00
2023-06-20T09:59:25.383Z,615.00
2023-06-20T10:00:25.938Z,469.00
2023-06-20T10:01:25.419Z,540.00
2023-06-20T10:02:30.941Z,594.00
2023-06-20T10:03:26.402Z,492.00
2023-06-20T10:04:25.409Z,596.00
2023-06-20T10:05:26.048Z,600.00
2023-06-20T10:06:25.538Z,447.00
2023-06-20T10:07:25.852Z,400.00
2023-06-20T10:08:25.380Z,534.00
2023-06-20T10:09:25.871Z,469.00
2023-06-20T10:10:25.485Z,494.00
2023-06-20T10:11:25.350Z,492.00
2023-06-20T10:12:25.407Z,500.00
2023-06-20T10:13:26.593Z,437.00
2023-06-20T10:14:25.256Z,500.00
2023-06-20T10:15:25.523Z,551.00
2023-06-20T10:16:25.622Z,660.00
2023-06-20T10:17:28.115Z,1127.00
2023-06-20T10:18:25.420Z,1211.00
2023-06-20T10:19:25.626Z,1180.00
2023-06-20T10:20:25.703Z,793.00
2023-06-20T10:21:25.564Z,1370.00
2023-06-20T10:22:25.358Z,1788.00
2023-06-20T10:23:25.245Z,1590.00
2023-06-20T10:24:25.624Z,1175.00
2023-06-20T10:25:25.232Z,1055.00
2023-06-20T10:26:26.173Z,829.00
2023-06-20T10:27:27.037Z,581.00
2023-06-20T10:28:25.297Z,497.00
2023-06-20T10:29:25.177Z,505.00
2023-06-20T10:30:26.048Z,493.00
2023-06-20T10:31:25.359Z,613.00
2023-06-20T10:32:25.201Z,670.00
2023-06-20T10:33:25.594Z,768.00
2023-06-20T10:34:25.550Z,573.00
2023-06-20T10:35:25.204Z,519.00
2023-06-20T10:36:25.138Z,664.00
2023-06-20T10:37:25.218Z,623.00
2023-06-20T10:38:25.331Z,598.00
2023-06-20T10:39:25.192Z,523.00
2023-06-20T10:40:26.455Z,584.00
2023-06-20T10:41:26.423Z,691.00
2023-06-20T10:42:25.185Z,936.00
2023-06-20T10:43:25.108Z,665.00
2023-06-20T10:44:25.168Z,813.00
2023-06-20T10:45:25.195Z,781.00
2023-06-20T10:46:25.433Z,542.00
2023-06-20T10:47:25.115Z,476.00
2023-06-20T10:48:25.292Z,555.00
2023-06-20T10:49:25.052Z,805.00
2023-06-20T10:50:25.451Z,634.00
2023-06-20T10:51:25.146Z,561.00
2023-06-20T10:52:25.125Z,539.00
2023-06-20T10:53:25.734Z,655.00
2023-06-20T10:54:25.157Z,677.00
2023-06-20T10:55:25.049Z,997.00
2023-06-20T10:56:25.154Z,1291.00
2023-06-20T10:57:25.779Z,1334.00
2023-06-20T10:58:32.560Z,969.00
2023-06-20T10:59:26.235Z,658.00
2023-06-20T11:00:25.808Z,516.00
2023-06-20T11:01:25.062Z,438.00
2023-06-20T11:02:25.105Z,574.00
2023-06-20T11:03:25.155Z,912.00
2023-06-20T11:04:25.683Z,756.00
2023-06-20T11:05:25.342Z,659.00
2023-06-20T11:06:25.220Z,499.00
2023-06-20T11:07:25.066Z,530.00
2023-06-20T11:08:25.044Z,538.00
2023-06-20T11:09:25.051Z,510.00
2023-06-20T11:10:25.954Z,561.00
2023-06-20T11:11:26.273Z,483.00
2023-06-20T11:12:25.283Z,526.00
2023-06-20T11:13:25.383Z,557.00
2023-06-20T11:15:45.886Z,500.00
2023-06-20T11:16:44.177Z,500.00
2023-06-20T11:17:44.092Z,500.00
2023-06-20T11:18:44.138Z,500.00
2023-06-20T11:19:44.321Z,500.00
2023-06-20T11:20:44.776Z,500.00
2023-06-20T11:21:44.675Z,500.00
2023-06-20T11:22:45.103Z,500.00
2023-06-20T11:23:44.242Z,500.00
2023-06-20T11:24:44.583Z,500.00
2023-06-20T11:25:45.213Z,500.00
2023-06-20T11:26:44.467Z,500.00
2023-06-20T11:27:44.320Z,500.00
2023-06-20T11:28:44.259Z,500.00
2023-06-20T11:29:44.953Z,500.00
2023-06-20T11:30:45.256Z,500.00
2023-06-20T11:31:44.584Z,500.00
2023-06-20T11:32:45.341Z,506.00
2023-06-20T11:33:46.758Z,509.00
2023-06-20T11:34:44.405Z,515.00
2023-06-20T11:35:44.407Z,512.00
2023-06-20T11:36:44.382Z,508.00
2023-06-20T11:37:44.486Z,506.00
2023-06-20T11:38:44.397Z,470.00
2023-06-20T11:39:47.350Z,429.00
2023-06-20T11:40:44.555Z,400.00
2023-06-20T11:41:44.403Z,517.00
2023-06-20T11:42:44.396Z,622.00
2023-06-20T11:43:44.453Z,511.00
2023-06-20T11:44:44.416Z,532.00
2023-06-20T11:45:44.337Z,523.00
2023-06-20T11:46:44.406Z,513.00
2023-06-20T11:47:44.410Z,507.00
2023-06-20T11:48:44.400Z,421.00
2023-06-20T11:49:44.299Z,404.00
2023-06-20T11:50:44.578Z,400.00
2023-06-20T11:51:44.324Z,400.00
2023-06-20T11:52:44.321Z,426.00
2023-06-20T11:53:45.189Z,400.00
2023-06-20T11:54:44.334Z,420.00
2023-06-20T11:55:44.298Z,400.00
2023-06-20T11:56:44.301Z,400.00
2023-06-20T11:57:44.243Z,400.00
2023-06-20T11:58:45.294Z,411.00
2023-06-20T11:59:44.292Z,400.00
2023-06-20T12:02:03.507Z,500.00
2023-06-20T12:03:03.405Z,500.00
2023-06-20T12:04:03.446Z,500.00
2023-06-20T12:05:05.870Z,500.00
2023-06-20T12:06:03.301Z,500.00
2023-06-20T12:07:03.288Z,500.00
2023-06-20T12:08:03.238Z,500.00
2023-06-20T12:09:03.341Z,500.00
2023-06-20T12:10:03.319Z,500.00
2023-06-20T12:11:03.847Z,500.00
2023-06-20T12:12:03.565Z,500.00
2023-06-20T12:13:03.301Z,500.00
2023-06-20T12:14:03.252Z,500.00
2023-06-20T12:15:03.215Z,500.00
2023-06-20T12:16:03.191Z,500.00
2023-06-20T12:17:03.239Z,500.00
2023-06-20T12:18:03.975Z,500.00
2023-06-20T12:19:03.235Z,500.00
2023-06-20T12:20:03.236Z,500.00
2023-06-20T12:21:04.586Z,500.00
2023-06-20T12:22:03.948Z,500.00
2023-06-20T12:23:03.157Z,500.00